createdAt,value
2023-03-10T00:02:16.297Z,10.10
2023-03-10T00:05:05.009Z,10.00
2023-03-10T00:07:40.058Z,10.00
2023-03-10T00:10:15.262Z,10.10
2023-03-10T00:12:51.025Z,10.00
2023-03-10T00:15:19.949Z,10.00
2023-03-10T00:17:57.179Z,10.00
2023-03-10T00:20:26.586Z,10.00
2023-03-10T00:23:02.039Z,10.00
2023-03-10T00:25:31.822Z,10.00
2023-03-10T00:28:07.167Z,10.00
2023-03-10T00:30:36.129Z,10.00
2023-03-10T00:33:11.049Z,10.00
2023-03-10T00:35:39.630Z,10.00
2023-03-10T00:38:15.040Z,10.00
2023-03-10T00:40:45.067Z,10.00
2023-03-10T00:43:20.494Z,10.00
2023-03-10T00:45:49.056Z,10.00
2023-03-10T00:48:24.089Z,10.00
2023-03-10T00:50:52.759Z,10.00
2023-03-10T00:53:28.159Z,10.00
2023-03-10T00:56:02.831Z,10.00
2023-03-10T00:58:39.145Z,10.00
2023-03-10T01:01:15.348Z,10.00
2023-03-10T01:03:51.158Z,10.00
2023-03-10T01:06:40.105Z,10.00
2023-03-10T01:09:15.383Z,10.00
2023-03-10T01:11:59.076Z,10.00
2023-03-10T01:14:27.576Z,10.00
2023-03-10T01:17:02.400Z,10.00
2023-03-10T01:19:31.105Z,10.00
2023-03-10T01:22:06.411Z,10.00
2023-03-10T01:24:34.903Z,10.00
2023-03-10T01:27:11.480Z,10.00
2023-03-10T01:29:40.096Z,10.00
2023-03-10T01:32:15.262Z,10.00
2023-03-10T01:34:43.866Z,10.00
2023-03-10T01:37:19.418Z,10.00
2023-03-10T01:39:47.884Z,10.00
2023-03-10T01:42:24.195Z,10.00
2023-03-10T01:45:11.310Z,10.10
2023-03-10T01:47:46.480Z,10.00
2023-03-10T01:50:20.251Z,10.00
2023-03-10T01:53:03.189Z,10.00
2023-03-10T01:55:35.050Z,10.00
2023-03-10T01:58:14.169Z,10.00
2023-03-10T02:00:43.434Z,10.10
2023-03-10T02:03:24.155Z,10.10
2023-03-10T02:06:16.139Z,10.10
2023-03-10T02:08:54.150Z,10.10
2023-03-10T02:11:23.336Z,10.10
2023-03-10T02:14:00.193Z,10.10
2023-03-10T02:16:28.908Z,10.10
2023-03-10T02:19:04.188Z,10.10
2023-03-10T02:21:43.279Z,10.10
2023-03-10T02:24:28.987Z,10.10
2023-03-10T02:27:02.926Z,10.10
2023-03-10T02:29:57.933Z,10.10
2023-03-10T02:32:28.670Z,10.10
2023-03-10T02:35:04.171Z,10.00
2023-03-10T02:37:34.988Z,10.00
2023-03-10T02:40:11.199Z,10.00
2023-03-10T02:42:40.101Z,10.00
2023-03-10T02:45:18.199Z,9.90
2023-03-10T02:47:46.734Z,9.90
2023-03-10T02:50:24.277Z,9.90
2023-03-10T02:52:58.150Z,9.90
2023-03-10T02:55:33.169Z,9.90
2023-03-10T02:58:02.633Z,9.90
2023-03-10T03:00:39.272Z,9.80
2023-03-10T03:03:08.832Z,9.80
2023-03-10T03:05:50.235Z,9.80
2023-03-10T03:08:26.697Z,9.80
2023-03-10T03:11:02.221Z,9.80
2023-03-10T03:13:33.679Z,9.80
2023-03-10T03:16:10.555Z,9.70
2023-03-10T03:18:39.731Z,9.70
2023-03-10T03:21:17.185Z,9.70
2023-03-10T03:23:46.293Z,9.70
2023-03-10T03:26:27.225Z,9.70
2023-03-10T03:28:56.831Z,9.70
2023-03-10T03:31:34.640Z,9.70
2023-03-10T03:34:03.236Z,9.70
2023-03-10T03:36:38.309Z,9.70
2023-03-10T03:39:07.651Z,9.70
2023-03-10T03:41:42.576Z,9.70
2023-03-10T03:44:11.543Z,9.70
2023-03-10T03:46:48.322Z,9.70
2023-03-10T03:49:16.670Z,9.70
2023-03-10T03:51:51.198Z,9.70
2023-03-10T03:54:22.656Z,9.70
2023-03-10T03:56:57.588Z,9.60
2023-03-10T03:59:26.377Z,9.70
2023-03-10T04:02:02.281Z,9.70
2023-03-10T04:04:30.845Z,9.70
2023-03-10T04:07:06.589Z,9.70
2023-03-10T04:09:35.349Z,9.70
2023-03-10T04:12:10.337Z,9.70
2023-03-10T04:14:39.664Z,9.70
2023-03-10T04:17:16.296Z,9.70
2023-03-10T04:19:51.285Z,9.60
2023-03-10T04:22:32.406Z,9.60
2023-03-10T04:25:00.752Z,9.70
2023-03-10T04:27:36.216Z,9.60
2023-03-10T04:30:05.757Z,9.60
2023-03-10T04:32:42.385Z,9.60
2023-03-10T04:35:14.246Z,9.50
2023-03-10T04:37:51.534Z,9.50
2023-03-10T04:40:20.674Z,9.50
2023-03-10T04:42:59.127Z,9.50
2023-03-10T04:45:28.190Z,9.50
2023-03-10T04:48:04.429Z,9.40
2023-03-10T04:50:32.971Z,9.50
2023-03-10T04:53:08.290Z,9.50
2023-03-10T04:55:36.879Z,9.40
2023-03-10T04:58:12.294Z,9.50
2023-03-10T05:00:56.455Z,9.50
2023-03-10T05:03:37.319Z,9.40
2023-03-10T05:06:23.327Z,9.40
2023-03-10T05:08:58.673Z,9.40
2023-03-10T05:11:33.338Z,9.40
2023-03-10T05:14:02.239Z,9.40
2023-03-10T05:16:37.592Z,9.40
2023-03-10T05:19:07.986Z,9.40
2023-03-10T05:21:43.633Z,9.40
2023-03-10T05:24:12.131Z,9.40
2023-03-10T05:26:47.340Z,9.40
2023-03-10T05:29:15.761Z,9.30
2023-03-10T05:31:52.622Z,9.20
2023-03-10T05:34:23.824Z,9.20
2023-03-10T05:37:11.330Z,9.10
2023-03-10T05:39:46.372Z,9.10
2023-03-10T05:42:14.756Z,9.00
2023-03-10T05:44:49.405Z,9.00
2023-03-10T05:47:25.666Z,8.90
2023-03-10T05:49:56.011Z,8.90
2023-03-10T05:52:31.702Z,8.90
2023-03-10T05:55:06.361Z,8.80
2023-03-10T05:57:34.755Z,8.80
2023-03-10T06:00:09.705Z,8.80
2023-03-10T06:02:45.405Z,8.80
2023-03-10T06:05:15.787Z,8.80
2023-03-10T06:08:00.392Z,8.80
2023-03-10T06:10:28.829Z,8.80
2023-03-10T06:13:04.444Z,8.80
2023-03-10T06:15:33.978Z,8.80
2023-03-10T06:18:02.868Z,8.80
2023-03-10T06:20:39.437Z,8.80
2023-03-10T06:23:07.991Z,8.80
2023-03-10T06:25:43.732Z,8.80
2023-03-10T06:28:19.628Z,8.90
2023-03-10T06:30:54.960Z,8.90
2023-03-10T06:33:30.389Z,8.90
2023-03-10T06:36:09.392Z,8.90
2023-03-10T06:38:37.945Z,8.90
2023-03-10T06:41:14.591Z,8.80
2023-03-10T06:43:49.886Z,8.80
2023-03-10T06:46:19.416Z,8.80
2023-03-10T06:48:54.715Z,8.70
2023-03-10T06:51:31.663Z,8.80
2023-03-10T06:54:00.310Z,8.80
2023-03-10T06:56:35.667Z,8.80
2023-03-10T06:59:10.722Z,8.80
2023-03-10T07:01:39.412Z,8.90
2023-03-10T07:04:15.823Z,8.90
2023-03-10T07:06:52.703Z,8.90
2023-03-10T07:09:27.881Z,9.00
2023-03-10T07:12:02.811Z,9.00
2023-03-10T07:14:31.526Z,9.10
2023-03-10T07:17:06.794Z,9.10
2023-03-10T07:19:42.437Z,9.20
2023-03-10T07:22:12.282Z,9.20
2023-03-10T07:24:47.595Z,9.30
2023-03-10T07:27:22.429Z,9.40
2023-03-10T07:29:50.956Z,9.40
2023-03-10T07:32:25.520Z,9.50
2023-03-10T07:35:00.819Z,9.50
2023-03-10T07:37:30.719Z,9.60
2023-03-10T07:40:05.488Z,9.70
2023-03-10T07:42:40.482Z,9.80
2023-03-10T07:45:09.991Z,9.90
2023-03-10T07:47:45.406Z,10.00
2023-03-10T07:50:20.505Z,10.10
2023-03-10T07:52:50.815Z,10.10
2023-03-10T07:55:26.486Z,10.20
2023-03-10T07:58:03.756Z,10.30
2023-03-10T08:00:32.402Z,10.30
2023-03-10T08:03:07.790Z,10.30
2023-03-10T08:05:47.813Z,10.30
2023-03-10T08:08:24.872Z,10.30
2023-03-10T08:11:07.455Z,10.20
2023-03-10T08:13:35.631Z,10.20
2023-03-10T08:16:11.524Z,10.20
2023-03-10T08:18:40.261Z,10.20
2023-03-10T08:21:09.140Z,10.10
2023-03-10T08:23:46.797Z,10.10
2023-03-10T08:26:17.831Z,10.10
2023-03-10T08:28:52.467Z,10.10
2023-03-10T08:31:28.728Z,10.10
2023-03-10T08:33:58.113Z,10.10
2023-03-10T08:36:35.484Z,10.10
2023-03-10T08:39:13.507Z,10.10
2023-03-10T08:41:46.346Z,10.10
2023-03-10T08:44:24.495Z,10.00
2023-03-10T08:46:53.499Z,10.00
2023-03-10T08:49:29.729Z,10.00
2023-03-10T08:52:05.798Z,9.90
2023-03-10T08:54:35.640Z,9.90
2023-03-10T08:57:10.528Z,9.90
2023-03-10T08:59:46.814Z,9.90
2023-03-10T09:02:15.962Z,9.80
2023-03-10T09:04:51.924Z,9.80
2023-03-10T09:07:26.553Z,9.80
2023-03-10T09:10:03.386Z,9.80
2023-03-10T09:12:39.428Z,9.70
2023-03-10T09:15:16.865Z,9.70
2023-03-10T09:17:45.095Z,9.70
2023-03-10T09:20:22.556Z,9.60
2023-03-10T09:22:57.645Z,9.60
2023-03-10T09:25:27.638Z,9.50
2023-03-10T09:28:02.642Z,9.50
2023-03-10T09:30:31.236Z,9.40
2023-03-10T09:32:59.940Z,9.30
2023-03-10T09:35:36.003Z,9.20
2023-03-10T09:38:06.153Z,9.20
2023-03-10T09:40:43.494Z,9.30
2023-03-10T09:43:23.552Z,9.30
2023-03-10T09:45:58.599Z,9.40
2023-03-10T09:48:47.575Z,9.40
2023-03-10T09:51:18.228Z,9.40
2023-03-10T09:54:09.856Z,9.40
2023-03-10T09:56:40.321Z,9.40
2023-03-10T09:59:20.850Z,9.40
2023-03-10T10:01:52.160Z,9.50
2023-03-10T10:04:30.643Z,9.50
2023-03-10T10:07:15.529Z,9.60
2023-03-10T10:09:55.879Z,9.60
2023-03-10T10:12:28.512Z,9.60
2023-03-10T10:15:06.611Z,9.70
2023-03-10T10:17:56.453Z,9.60
2023-03-10T10:20:37.654Z,9.70
2023-03-10T10:23:11.671Z,9.70
2023-03-10T10:25:48.234Z,9.80
2023-03-10T10:28:26.215Z,9.80
2023-03-10T10:31:19.045Z,9.80
2023-03-10T10:34:01.519Z,9.80
2023-03-10T10:36:38.626Z,9.80
2023-03-10T10:39:27.911Z,9.80
2023-03-10T10:42:03.693Z,9.80
2023-03-10T10:44:42.255Z,9.80
2023-03-10T10:47:33.943Z,9.80
2023-03-10T10:50:20.071Z,9.80
2023-03-10T10:52:57.605Z,9.80
2023-03-10T10:55:29.278Z,9.80
2023-03-10T10:58:06.633Z,9.90
2023-03-10T11:00:38.352Z,9.90
2023-03-10T11:03:29.393Z,10.10
2023-03-10T11:06:05.112Z,10.10
2023-03-10T11:08:49.680Z,10.10
2023-03-10T11:11:25.688Z,10.10
2023-03-10T11:14:18.938Z,10.10
2023-03-10T11:16:57.367Z,10.10
2023-03-10T11:19:39.923Z,10.10
2023-03-10T11:22:17.678Z,10.10
2023-03-10T11:25:00.749Z,10.10
2023-03-10T11:27:43.505Z,10.20
2023-03-10T11:30:24.315Z,10.20
2023-03-10T11:33:16.347Z,10.20
2023-03-10T11:35:53.682Z,10.20
2023-03-10T11:38:36.154Z,10.20
2023-03-10T11:41:14.689Z,10.20
2023-03-10T11:43:56.468Z,10.30
2023-03-10T11:46:34.946Z,10.40
2023-03-10T11:49:08.996Z,10.40
2023-03-10T11:51:47.634Z,10.40
2023-03-10T11:54:20.870Z,10.50
2023-03-10T11:56:57.721Z,10.40
2023-03-10T11:59:29.390Z,10.40
2023-03-10T12:02:08.971Z,10.50
2023-03-10T12:04:45.319Z,10.50
2023-03-10T12:07:26.664Z,10.50
2023-03-10T12:10:10.707Z,10.50
2023-03-10T12:12:42.075Z,10.50
2023-03-10T12:15:25.700Z,10.50
2023-03-10T12:17:55.862Z,10.30
2023-03-10T12:20:37.972Z,10.10
2023-03-10T12:23:39.972Z,9.90
2023-03-10T12:26:15.741Z,9.60
2023-03-10T12:28:43.923Z,9.40
2023-03-10T12:31:41.108Z,9.30
2023-03-10T12:34:19.361Z,9.20
2023-03-10T12:36:58.690Z,9.20
2023-03-10T12:39:43.365Z,9.10
2023-03-10T12:42:39.124Z,9.00
2023-03-10T12:45:19.358Z,8.90
2023-03-10T12:48:04.006Z,8.90
2023-03-10T12:50:42.423Z,8.90
2023-03-10T12:53:36.659Z,8.80
2023-03-10T12:56:23.003Z,8.70
2023-03-10T12:59:03.768Z,8.70
2023-03-10T13:01:40.613Z,8.60
2023-03-10T13:04:24.810Z,8.50
2023-03-10T13:07:14.103Z,8.50
2023-03-10T13:09:53.897Z,8.50
2023-03-10T13:12:26.759Z,8.40
2023-03-10T13:15:05.038Z,8.40
2023-03-10T13:17:34.504Z,8.30
2023-03-10T13:20:14.847Z,8.40
2023-03-10T13:22:54.210Z,8.30
2023-03-10T13:25:31.818Z,8.30
2023-03-10T13:28:10.416Z,8.20
2023-03-10T13:30:45.772Z,8.30
2023-03-10T13:33:24.014Z,8.20
2023-03-10T13:36:00.833Z,8.20
2023-03-10T13:38:29.636Z,8.10
2023-03-10T13:41:12.069Z,8.10
2023-03-10T13:43:42.095Z,8.00
2023-03-10T13:46:23.842Z,8.00
2023-03-10T13:48:52.804Z,8.00
2023-03-10T13:51:32.298Z,8.00
2023-03-10T13:54:20.045Z,7.90
2023-03-10T13:56:58.800Z,7.90
2023-03-10T13:59:29.935Z,7.90
2023-03-10T14:02:07.107Z,7.80
2023-03-10T14:04:45.880Z,7.70
2023-03-10T14:07:25.160Z,7.60
2023-03-10T14:10:21.845Z,7.60
2023-03-10T14:12:53.530Z,7.50
2023-03-10T14:15:33.140Z,7.50
2023-03-10T14:18:21.001Z,7.40
2023-03-10T14:20:55.809Z,7.40
2023-03-10T14:23:29.461Z,7.30
2023-03-10T14:26:06.185Z,7.30
2023-03-10T14:28:36.363Z,7.30
2023-03-10T14:31:12.888Z,7.30
2023-03-10T14:33:42.355Z,7.10
2023-03-10T14:36:19.149Z,6.60
2023-03-10T14:38:47.840Z,6.20
2023-03-10T14:41:24.842Z,5.60
2023-03-10T14:43:54.937Z,5.10
2023-03-10T14:46:30.181Z,4.90
2023-03-10T14:48:58.995Z,4.60
2023-03-10T14:51:36.366Z,4.50
2023-03-10T14:54:05.640Z,4.20
2023-03-10T14:56:42.141Z,4.00
2023-03-10T14:59:15.803Z,3.90
2023-03-10T15:01:51.288Z,3.70
2023-03-10T15:04:20.842Z,3.50
2023-03-10T15:07:02.839Z,3.20
2023-03-10T15:09:38.328Z,2.90
2023-03-10T15:12:13.850Z,2.80
2023-03-10T15:14:52.625Z,2.60
2023-03-10T15:17:27.924Z,2.40
2023-03-10T15:19:56.428Z,2.30
2023-03-10T15:22:31.865Z,2.30
2023-03-10T15:25:00.408Z,2.30
2023-03-10T15:27:35.873Z,2.20
2023-03-10T15:30:07.113Z,2.20
2023-03-10T15:32:41.969Z,2.20
2023-03-10T15:35:12.013Z,2.20
2023-03-10T15:37:46.844Z,2.20
2023-03-10T15:40:18.686Z,2.30
2023-03-10T15:42:54.815Z,2.30
2023-03-10T15:45:25.706Z,2.30
2023-03-10T15:48:01.239Z,2.30
2023-03-10T15:50:30.111Z,2.20
2023-03-10T15:53:06.983Z,2.10
2023-03-10T15:55:36.649Z,2.10
2023-03-10T15:58:12.249Z,2.10
2023-03-10T16:00:44.135Z,2.10
2023-03-10T16:03:21.890Z,2.10
2023-03-10T16:05:50.883Z,2.10
2023-03-10T16:08:32.260Z,2.10
2023-03-10T16:11:00.669Z,2.10
2023-03-10T16:13:36.059Z,2.20
2023-03-10T16:16:11.122Z,2.20
2023-03-10T16:18:45.896Z,2.10
2023-03-10T16:21:17.733Z,2.10
2023-03-10T16:23:53.194Z,2.10
2023-03-10T16:26:23.305Z,2.10
2023-03-10T16:29:01.185Z,2.10
2023-03-10T16:31:31.407Z,2.10
2023-03-10T16:34:06.927Z,2.10
2023-03-10T16:36:36.722Z,2.20
2023-03-10T16:39:17.721Z,2.10
2023-03-10T16:41:46.369Z,2.00
2023-03-10T16:44:22.029Z,2.00
2023-03-10T16:46:52.169Z,2.00
2023-03-10T16:49:27.212Z,2.10
2023-03-10T16:51:56.189Z,2.10
2023-03-10T16:54:32.219Z,2.00
2023-03-10T16:57:01.598Z,2.00
2023-03-10T16:59:37.263Z,2.00
2023-03-10T17:02:07.883Z,2.00
2023-03-10T17:04:42.995Z,2.00
2023-03-10T17:07:30.914Z,2.00
2023-03-10T17:10:06.032Z,2.00
2023-03-10T17:12:34.482Z,2.00
2023-03-10T17:15:09.266Z,2.00
2023-03-10T17:17:39.219Z,2.10
2023-03-10T17:20:16.262Z,2.10
2023-03-10T17:22:45.114Z,2.10
2023-03-10T17:25:22.276Z,2.10
2023-03-10T17:27:50.895Z,2.20
2023-03-10T17:30:27.127Z,2.20
2023-03-10T17:32:57.075Z,2.20
2023-03-10T17:35:31.993Z,2.20
2023-03-10T17:38:00.494Z,2.30
2023-03-10T17:40:35.979Z,2.30
2023-03-10T17:43:17.712Z,2.30
2023-03-10T17:46:04.518Z,2.30
2023-03-10T17:48:35.773Z,2.30
2023-03-10T17:51:11.031Z,2.40
2023-03-10T17:53:39.649Z,2.40
2023-03-10T17:56:16.426Z,2.40
2023-03-10T17:58:45.647Z,2.40
2023-03-10T18:01:22.963Z,2.40
2023-03-10T18:03:53.040Z,2.40
2023-03-10T18:06:30.210Z,2.40
2023-03-10T18:09:28.972Z,2.40
2023-03-10T18:12:05.331Z,2.40
2023-03-10T18:14:34.827Z,2.40
2023-03-10T18:17:10.069Z,2.40
2023-03-10T18:19:40.378Z,2.40
2023-03-10T18:22:16.430Z,2.30
2023-03-10T18:24:44.992Z,2.30
2023-03-10T18:27:20.065Z,2.30
2023-03-10T18:29:48.519Z,2.20
2023-03-10T18:32:25.933Z,2.20
2023-03-10T18:34:58.086Z,2.20
2023-03-10T18:37:33.193Z,2.10
2023-03-10T18:40:02.478Z,2.00
2023-03-10T18:42:37.353Z,2.00
2023-03-10T18:45:06.448Z,2.00
2023-03-10T18:47:42.045Z,1.90
2023-03-10T18:50:14.299Z,1.90
2023-03-10T18:52:50.031Z,1.90
2023-03-10T18:55:18.660Z,1.90
2023-03-10T18:57:54.363Z,1.80
2023-03-10T19:00:23.871Z,1.80
2023-03-10T19:03:00.163Z,1.80
2023-03-10T19:05:37.317Z,1.80
2023-03-10T19:08:12.497Z,1.80
2023-03-10T19:10:48.052Z,1.70
2023-03-10T19:13:16.811Z,1.80
2023-03-10T19:15:52.405Z,1.70
2023-03-10T19:18:21.153Z,1.70
2023-03-10T19:20:58.356Z,1.70
2023-03-10T19:23:26.979Z,1.70
2023-03-10T19:26:02.089Z,1.80
2023-03-10T19:28:30.528Z,1.80
2023-03-10T19:31:05.120Z,1.80
2023-03-10T19:33:33.532Z,1.80
2023-03-10T19:36:12.117Z,1.80
2023-03-10T19:38:42.609Z,1.90
2023-03-10T19:41:23.089Z,1.90
2023-03-10T19:43:52.257Z,1.90
2023-03-10T19:46:29.132Z,1.90
2023-03-10T19:48:57.749Z,1.90
2023-03-10T19:51:36.110Z,1.90
2023-03-10T19:54:05.335Z,1.90
2023-03-10T19:56:40.125Z,2.00
2023-03-10T19:59:08.554Z,2.00
2023-03-10T20:01:45.094Z,2.00
2023-03-10T20:04:13.511Z,2.00
2023-03-10T20:06:50.416Z,2.00
2023-03-10T20:09:25.948Z,2.00
2023-03-10T20:12:01.094Z,2.00
2023-03-10T20:14:30.382Z,1.90
2023-03-10T20:17:06.378Z,1.90
2023-03-10T20:19:34.850Z,1.80
2023-03-10T20:22:11.112Z,1.80
2023-03-10T20:24:39.370Z,1.80
2023-03-10T20:27:14.122Z,1.80
2023-03-10T20:29:43.751Z,1.70
2023-03-10T20:32:19.454Z,1.70
2023-03-10T20:34:47.984Z,1.70
2023-03-10T20:37:24.167Z,1.80
2023-03-10T20:39:53.089Z,1.70
2023-03-10T20:42:28.098Z,1.70
2023-03-10T20:44:56.863Z,1.60
2023-03-10T20:47:32.075Z,1.60
2023-03-10T20:50:00.773Z,1.60
2023-03-10T20:52:37.160Z,1.60
2023-03-10T20:55:08.096Z,1.60
2023-03-10T20:57:43.430Z,1.60
2023-03-10T21:00:13.851Z,1.60
2023-03-10T21:02:49.579Z,1.50
2023-03-10T21:05:18.244Z,1.50
2023-03-10T21:07:55.207Z,1.50
2023-03-10T21:10:30.357Z,1.40
2023-03-10T21:13:05.167Z,1.40
2023-03-10T21:15:34.023Z,1.40
2023-03-10T21:18:09.234Z,1.40
2023-03-10T21:20:37.332Z,1.40
2023-03-10T21:23:14.433Z,1.40
2023-03-10T21:25:43.185Z,1.30
2023-03-10T21:28:18.444Z,1.30
2023-03-10T21:30:47.281Z,1.30
2023-03-10T21:33:22.467Z,1.30
2023-03-10T21:35:51.148Z,1.30
2023-03-10T21:38:28.176Z,1.20
2023-03-10T21:40:56.412Z,1.20
2023-03-10T21:43:34.509Z,1.20
2023-03-10T21:46:03.307Z,1.20
2023-03-10T21:48:38.560Z,1.20
2023-03-10T21:51:16.492Z,1.10
2023-03-10T21:53:47.654Z,1.10
2023-03-10T21:56:24.465Z,1.10
2023-03-10T21:58:59.596Z,1.10
2023-03-10T22:01:29.098Z,1.10
2023-03-10T22:04:05.575Z,1.00
2023-03-10T22:06:40.211Z,1.00
2023-03-10T22:09:16.713Z,1.10
2023-03-10T22:11:58.193Z,1.00
2023-03-10T22:14:33.510Z,1.00
2023-03-10T22:17:02.290Z,1.00
2023-03-10T22:19:37.185Z,1.00
2023-03-10T22:22:12.519Z,1.00
2023-03-10T22:24:43.633Z,1.10
2023-03-10T22:27:19.141Z,1.00
2023-03-10T22:29:54.324Z,0.90
2023-03-10T22:32:23.174Z,0.90
2023-03-10T22:34:58.267Z,0.90
2023-03-10T22:37:27.036Z,0.90
2023-03-10T22:39:56.928Z,0.90
2023-03-10T22:42:32.296Z,0.80
2023-03-10T22:45:02.069Z,0.80
2023-03-10T22:47:37.198Z,0.80
2023-03-10T22:50:06.530Z,0.90
2023-03-10T22:52:41.183Z,0.70
2023-03-10T22:55:13.636Z,0.70
2023-03-10T22:57:48.295Z,0.70
2023-03-10T23:00:20.367Z,0.70
2023-03-10T23:02:56.562Z,0.70
2023-03-10T23:05:25.156Z,0.70
2023-03-10T23:08:07.269Z,0.70
2023-03-10T23:10:51.236Z,0.70
2023-03-10T23:13:21.833Z,0.70
2023-03-10T23:15:57.455Z,0.80
2023-03-10T23:18:32.241Z,0.80
2023-03-10T23:21:00.769Z,0.80
2023-03-10T23:23:35.296Z,0.80
2023-03-10T23:26:12.237Z,0.80
2023-03-10T23:28:41.329Z,0.80
2023-03-10T23:31:16.301Z,0.80
2023-03-10T23:33:45.644Z,0.80
2023-03-10T23:36:20.544Z,0.80
2023-03-10T23:38:49.033Z,0.70
2023-03-10T23:41:26.574Z,0.80
2023-03-10T23:43:55.126Z,0.70
2023-03-10T23:46:30.545Z,0.70
2023-03-10T23:48:59.322Z,0.70
2023-03-10T23:51:35.278Z,0.70
2023-03-10T23:54:03.729Z,0.70
2023-03-10T23:56:40.583Z,0.70
2023-03-10T23:59:09.033Z,0.60
